createdAt,value
2017-06-11T00:00:27.721Z,7.13
2017-06-11T00:02:55.955Z,8.90
2017-06-11T00:05:24.148Z,8.23
2017-06-11T00:07:52.352Z,9.93
2017-06-11T00:10:20.651Z,9.57
2017-06-11T00:12:48.852Z,13.80
2017-06-11T00:15:17.042Z,11.17
2017-06-11T00:17:46.040Z,11.07
2017-06-11T00:20:14.233Z,16.53
2017-06-11T00:22:42.430Z,8.77
2017-06-11T00:25:10.649Z,8.70
2017-06-11T00:27:38.823Z,9.37
2017-06-11T00:30:07.034Z,13.93
2017-06-11T00:32:35.230Z,9.20
2017-06-11T00:35:03.422Z,8.97
2017-06-11T00:37:31.760Z,12.70
2017-06-11T00:39:59.949Z,12.60
2017-06-11T00:42:28.132Z,11.93
2017-06-11T00:44:56.345Z,8.83
2017-06-11T00:47:24.552Z,12.47
2017-06-11T00:49:53.519Z,13.50
2017-06-11T00:52:21.719Z,11.43
2017-06-11T00:54:50.700Z,10.03
2017-06-11T00:57:18.916Z,15.93
2017-06-11T00:59:47.122Z,13.17
2017-06-11T01:02:15.336Z,12.73
2017-06-11T01:04:43.676Z,10.53
2017-06-11T01:07:11.879Z,12.07
2017-06-11T01:09:40.046Z,7.80
2017-06-11T01:12:08.351Z,7.07
2017-06-11T01:14:36.526Z,10.33
2017-06-11T01:17:04.706Z,22.93
2017-06-11T01:19:32.912Z,9.73
2017-06-11T01:22:01.085Z,12.27
2017-06-11T01:24:29.333Z,10.50
2017-06-11T01:26:57.526Z,13.83
2017-06-11T01:29:25.744Z,9.03
2017-06-11T01:31:53.985Z,12.73
2017-06-11T01:34:22.201Z,12.47
2017-06-11T01:36:50.379Z,14.33
2017-06-11T01:39:18.701Z,13.80
2017-06-11T01:41:46.899Z,13.80
2017-06-11T01:44:15.223Z,13.07
2017-06-11T01:46:43.411Z,9.50
2017-06-11T01:49:11.583Z,9.97
2017-06-11T01:51:39.868Z,14.77
2017-06-11T01:54:08.080Z,9.50
2017-06-11T01:56:36.321Z,12.70
2017-06-11T01:59:04.592Z,8.30
2017-06-11T02:01:32.814Z,13.67
2017-06-11T02:04:00.984Z,13.20
2017-06-11T02:06:29.308Z,8.30
2017-06-11T02:08:57.480Z,9.00
2017-06-11T02:11:25.694Z,11.67
2017-06-11T02:13:54.670Z,9.30
2017-06-11T02:16:22.881Z,9.77
2017-06-11T02:18:51.056Z,14.00
2017-06-11T02:21:19.246Z,13.33
2017-06-11T02:23:47.462Z,12.60
2017-06-11T02:26:15.799Z,7.17
2017-06-11T02:28:43.985Z,11.30
2017-06-11T02:31:12.220Z,9.60
2017-06-11T02:33:40.429Z,10.70
2017-06-11T02:36:08.620Z,12.00
2017-06-11T02:38:36.799Z,13.57
2017-06-11T02:41:05.024Z,9.60
2017-06-11T02:43:33.260Z,15.63
2017-06-11T02:46:01.472Z,10.00
2017-06-11T02:48:30.612Z,13.20
2017-06-11T02:50:59.144Z,11.93
2017-06-11T02:53:27.337Z,10.03
2017-06-11T02:55:55.629Z,13.50
2017-06-11T02:58:23.897Z,10.73
2017-06-11T03:00:52.201Z,12.93
2017-06-11T03:03:20.395Z,13.80
2017-06-11T03:05:48.599Z,11.10
2017-06-11T03:08:16.781Z,19.87
2017-06-11T03:10:44.985Z,13.43
2017-06-11T03:13:13.248Z,12.20
2017-06-11T03:15:41.465Z,9.60
2017-06-11T03:18:09.728Z,15.07
2017-06-11T03:20:38.084Z,9.93
2017-06-11T03:23:06.414Z,12.63
2017-06-11T03:25:34.716Z,13.23
2017-06-11T03:28:03.120Z,12.87
2017-06-11T03:30:31.388Z,12.73
2017-06-11T03:32:59.926Z,10.90
2017-06-11T03:35:28.291Z,12.43
2017-06-11T03:37:57.229Z,9.30
2017-06-11T03:40:25.426Z,12.90
2017-06-11T03:42:53.672Z,15.30
2017-06-11T03:45:21.954Z,12.17
2017-06-11T03:47:50.152Z,10.73
2017-06-11T03:50:18.377Z,12.77
2017-06-11T03:52:46.583Z,14.63
2017-06-11T03:55:14.765Z,16.17
2017-06-11T03:57:43.241Z,16.90
2017-06-11T04:00:11.420Z,11.10
2017-06-11T04:02:39.667Z,11.30
2017-06-11T04:05:07.885Z,11.03
2017-06-11T04:07:36.105Z,15.90
2017-06-11T04:10:04.435Z,13.57
2017-06-11T04:12:32.670Z,13.03
2017-06-11T04:15:00.866Z,9.43
2017-06-11T04:17:29.113Z,13.83
2017-06-11T04:19:57.304Z,10.60
2017-06-11T04:22:25.528Z,10.93
2017-06-11T04:24:53.742Z,9.53
2017-06-11T04:27:22.298Z,12.87
2017-06-11T04:29:50.496Z,8.83
2017-06-11T04:32:18.693Z,13.17
2017-06-11T04:34:46.904Z,12.80
2017-06-11T04:37:15.069Z,7.10
2017-06-11T04:39:43.267Z,8.60
2017-06-11T04:42:11.471Z,17.10
2017-06-11T04:44:39.651Z,10.40
2017-06-11T04:47:07.814Z,9.17
2017-06-11T04:49:36.027Z,14.87
2017-06-11T04:52:04.199Z,11.73
2017-06-11T04:54:33.199Z,10.73
2017-06-11T04:57:01.456Z,10.73
2017-06-11T04:59:29.644Z,10.20
2017-06-11T05:01:57.827Z,11.57
2017-06-11T05:04:26.030Z,9.60
2017-06-11T05:06:54.223Z,11.20
2017-06-11T05:09:22.496Z,12.60
2017-06-11T05:11:50.722Z,14.60
2017-06-11T05:14:18.981Z,10.93
2017-06-11T05:16:47.192Z,11.73
2017-06-11T05:19:15.407Z,11.10
2017-06-11T05:21:43.600Z,11.73
2017-06-11T05:24:11.802Z,13.20
2017-06-11T05:26:40.019Z,11.53
2017-06-11T05:29:08.597Z,10.23
2017-06-11T05:31:37.073Z,9.00
2017-06-11T05:34:05.276Z,9.80
2017-06-11T05:36:33.460Z,10.97
2017-06-11T05:39:01.673Z,15.10
2017-06-11T05:41:29.871Z,10.40
2017-06-11T05:43:58.144Z,9.63
2017-06-11T05:46:27.168Z,12.63
2017-06-11T05:48:55.343Z,15.50
2017-06-11T05:51:23.534Z,14.93
2017-06-11T05:53:51.761Z,12.57
2017-06-11T05:56:19.944Z,15.40
2017-06-11T05:58:48.111Z,14.30
2017-06-11T06:01:16.336Z,13.00
2017-06-11T06:03:44.543Z,14.60
2017-06-11T06:06:12.741Z,12.53
2017-06-11T06:08:40.924Z,12.20
2017-06-11T06:11:09.129Z,13.10
2017-06-11T06:13:37.332Z,15.70
2017-06-11T06:16:05.535Z,14.73
2017-06-11T06:18:33.720Z,13.87
2017-06-11T06:21:01.951Z,15.40
2017-06-11T07:18:22.388Z,12.20
2017-06-11T07:20:50.565Z,11.77
2017-06-11T07:23:18.748Z,11.73
2017-06-11T07:25:46.988Z,11.60
2017-06-11T07:28:15.142Z,7.83
2017-06-11T07:30:43.310Z,12.33
2017-06-11T07:33:11.654Z,11.60
2017-06-11T07:35:39.842Z,13.60
2017-06-11T07:38:08.817Z,9.13
2017-06-11T07:40:37.007Z,8.83
2017-06-11T07:43:05.954Z,8.87
2017-06-11T07:45:34.176Z,8.27
2017-06-11T07:48:02.378Z,10.60
2017-06-11T07:50:30.580Z,16.07
2017-06-11T07:52:58.760Z,8.40
2017-06-11T07:55:26.966Z,12.23
2017-06-11T07:57:55.193Z,8.17
2017-06-11T08:00:23.377Z,14.83
2017-06-11T08:02:51.617Z,9.23
2017-06-11T08:05:19.812Z,9.20
2017-06-11T08:07:48.008Z,10.27
2017-06-11T08:10:16.314Z,8.43
2017-06-11T08:12:44.507Z,6.23
2017-06-11T08:15:12.686Z,16.37
2017-06-11T08:17:40.876Z,11.73
2017-06-11T08:20:09.083Z,8.33
2017-06-11T08:22:37.248Z,7.93
2017-06-11T08:25:05.494Z,8.17
2017-06-11T08:27:33.802Z,11.87
2017-06-11T08:30:02.238Z,9.80
2017-06-11T08:32:30.476Z,9.27
2017-06-11T08:34:58.718Z,9.33
2017-06-11T08:37:27.112Z,9.23
2017-06-11T08:39:55.348Z,7.50
2017-06-11T08:42:23.618Z,7.50
2017-06-11T08:44:51.766Z,6.10
2017-06-11T08:47:19.994Z,7.83
2017-06-11T08:49:48.179Z,5.33
2017-06-11T08:52:16.430Z,12.10
2017-06-11T08:54:44.620Z,4.63
2017-06-11T08:57:12.798Z,4.57
2017-06-11T08:59:41.004Z,5.63
2017-06-11T09:02:09.190Z,7.03
2017-06-11T09:04:37.449Z,6.03
2017-06-11T09:07:05.638Z,5.33
2017-06-11T09:09:33.848Z,10.30
2017-06-11T09:12:02.001Z,5.73
2017-06-11T09:14:30.388Z,4.30
2017-06-11T09:16:58.561Z,4.10
2017-06-11T09:19:26.935Z,4.00
2017-06-11T09:21:55.178Z,6.83
2017-06-11T09:24:23.357Z,6.33
2017-06-11T09:26:51.563Z,8.23
2017-06-11T09:29:19.815Z,6.00
2017-06-11T09:31:48.063Z,4.10
2017-06-11T09:34:16.288Z,5.50
2017-06-11T09:36:44.635Z,4.90
2017-06-11T09:39:12.811Z,4.47
2017-06-11T09:41:41.006Z,6.23
2017-06-11T09:44:09.182Z,6.07
2017-06-11T09:46:37.382Z,8.00
2017-06-11T09:49:05.658Z,4.40
2017-06-11T09:51:33.862Z,7.07
2017-06-11T09:54:02.077Z,3.87
2017-06-11T09:56:30.494Z,4.87
2017-06-11T09:58:58.709Z,11.13
2017-06-11T10:01:26.933Z,5.30
2017-06-11T10:03:55.153Z,6.83
2017-06-11T10:06:23.383Z,5.43
2017-06-11T10:08:51.707Z,4.57
2017-06-11T10:11:19.892Z,5.40
2017-06-11T10:13:48.113Z,8.33
2017-06-11T10:16:16.311Z,8.23
2017-06-11T10:18:44.697Z,4.80
2017-06-11T10:21:13.300Z,4.80
2017-06-11T10:23:41.474Z,8.30
2017-06-11T10:26:09.643Z,5.60
2017-06-11T10:28:37.932Z,9.10
2017-06-11T10:31:06.099Z,6.67
2017-06-11T10:33:34.263Z,5.70
2017-06-11T10:36:02.532Z,9.67
2017-06-11T10:38:30.711Z,5.93
2017-06-11T10:40:58.913Z,5.87
2017-06-11T10:43:27.268Z,8.17
2017-06-11T10:45:55.551Z,6.70
2017-06-11T10:48:23.863Z,5.00
2017-06-11T10:50:52.089Z,8.17
2017-06-11T10:53:20.294Z,9.60
2017-06-11T10:55:48.690Z,5.03
2017-06-11T10:58:16.949Z,11.23
2017-06-11T11:00:45.307Z,7.87
2017-06-11T11:03:13.771Z,7.93
2017-06-11T11:05:42.159Z,9.17
2017-06-11T11:08:10.330Z,5.70
2017-06-11T11:10:38.515Z,6.87
2017-06-11T11:13:06.847Z,5.13
2017-06-11T11:15:35.191Z,11.73
2017-06-11T11:18:03.384Z,6.03
2017-06-11T11:20:31.810Z,11.03
2017-06-11T11:23:00.019Z,8.70
2017-06-11T11:25:28.221Z,8.10
2017-06-11T11:27:56.430Z,5.07
2017-06-11T11:30:24.577Z,9.53
2017-06-11T11:32:52.813Z,17.30
2017-06-11T11:35:21.030Z,7.93
2017-06-11T11:37:49.367Z,5.07
2017-06-11T11:40:17.562Z,6.10
2017-06-11T11:42:45.753Z,6.87
2017-06-11T11:45:13.932Z,9.27
2017-06-11T11:47:42.118Z,4.87
2017-06-11T11:50:10.313Z,5.00
2017-06-11T11:52:39.507Z,5.40
2017-06-11T11:55:07.705Z,6.40
2017-06-11T11:57:35.871Z,4.00
2017-06-11T12:00:04.047Z,3.23
2017-06-11T12:02:32.259Z,5.40
2017-06-11T12:05:01.237Z,3.40
2017-06-11T12:07:29.401Z,6.57
2017-06-11T12:09:57.638Z,3.20
2017-06-11T12:12:25.816Z,3.57
2017-06-11T12:14:54.739Z,2.87
2017-06-11T12:17:22.934Z,5.13
2017-06-11T12:19:51.146Z,3.33
2017-06-11T12:22:19.344Z,3.00
2017-06-11T12:24:48.051Z,4.70
2017-06-11T12:27:16.252Z,7.27
2017-06-11T12:29:44.412Z,6.70
2017-06-11T12:32:12.592Z,4.70
2017-06-11T12:34:41.559Z,5.90
2017-06-11T12:37:09.806Z,3.30
2017-06-11T12:39:37.976Z,4.10
2017-06-11T12:42:06.189Z,5.13
2017-06-11T12:44:36.065Z,7.60
2017-06-11T12:47:04.295Z,3.53
2017-06-11T12:49:32.473Z,3.90
2017-06-11T12:52:00.626Z,3.53
2017-06-11T12:54:28.835Z,5.47
2017-06-11T12:56:57.001Z,3.70
2017-06-11T12:59:25.650Z,4.63
2017-06-11T13:01:53.870Z,4.33
2017-06-11T13:04:22.051Z,6.50
2017-06-11T13:06:50.315Z,6.30
2017-06-11T13:09:18.547Z,5.43
2017-06-11T13:11:46.775Z,4.37
2017-06-11T13:14:15.631Z,7.57
2017-06-11T13:16:43.815Z,6.63
2017-06-11T13:19:11.971Z,4.13
2017-06-11T13:21:40.181Z,5.90
2017-06-11T13:24:08.340Z,3.63
2017-06-11T13:26:36.519Z,4.43
2017-06-11T13:29:04.707Z,4.20
2017-06-11T13:31:32.896Z,3.03
2017-06-11T13:34:01.583Z,3.43
2017-06-11T13:36:30.609Z,3.63
2017-06-11T13:39:00.340Z,3.13
2017-06-11T13:41:28.711Z,5.20
2017-06-11T13:43:58.125Z,8.17
2017-06-11T13:46:26.300Z,4.67
2017-06-11T13:48:54.649Z,7.60
2017-06-11T13:51:24.784Z,4.93
2017-06-11T13:53:52.996Z,3.33
2017-06-11T13:56:21.159Z,4.60
2017-06-11T13:58:49.323Z,5.63
2017-06-11T14:01:17.541Z,3.57
2017-06-11T14:03:45.710Z,4.90
2017-06-11T14:06:13.904Z,5.27
2017-06-11T14:08:42.165Z,4.00
2017-06-11T14:11:10.392Z,10.37
2017-06-11T14:13:38.561Z,4.20
2017-06-11T14:16:06.754Z,4.00
2017-06-11T14:18:34.943Z,3.07
2017-06-11T14:21:03.199Z,4.40
2017-06-11T14:23:31.426Z,4.23
2017-06-11T14:25:59.666Z,4.70
2017-06-11T14:28:27.837Z,4.93
2017-06-11T14:30:55.981Z,4.40
2017-06-11T14:33:24.166Z,5.30
2017-06-11T14:35:52.333Z,3.50
2017-06-11T14:38:20.546Z,3.10
2017-06-11T14:40:48.737Z,3.50
2017-06-11T14:43:17.833Z,4.17
2017-06-11T14:45:46.010Z,4.20
2017-06-11T14:48:14.184Z,4.03
2017-06-11T14:50:42.381Z,4.13
2017-06-11T14:53:10.763Z,3.70
2017-06-11T14:55:38.935Z,2.77
2017-06-11T14:58:07.171Z,3.00
2017-06-11T15:00:35.592Z,5.97
2017-06-11T15:03:03.963Z,3.50
2017-06-11T15:05:32.163Z,5.60
2017-06-11T15:08:00.355Z,3.40
2017-06-11T15:10:28.520Z,4.77
2017-06-11T15:12:56.684Z,5.47
2017-06-11T15:15:24.883Z,4.67
2017-06-11T15:17:53.054Z,5.27
2017-06-11T15:20:21.231Z,3.83
2017-06-11T15:22:49.445Z,9.30
2017-06-11T15:25:17.742Z,5.20
2017-06-11T15:27:45.904Z,4.50
2017-06-11T15:30:14.076Z,4.77
2017-06-11T15:32:42.308Z,3.63
2017-06-11T15:35:11.321Z,4.77
2017-06-11T15:37:39.529Z,8.90
2017-06-11T15:40:07.701Z,5.80
2017-06-11T15:42:35.883Z,10.03
2017-06-11T15:45:04.055Z,8.80
2017-06-11T15:47:32.216Z,5.43
2017-06-11T15:50:00.391Z,5.37
2017-06-11T15:52:28.586Z,4.63
2017-06-11T15:54:56.795Z,6.73
2017-06-11T15:57:25.753Z,5.93
2017-06-11T15:59:53.942Z,5.47
2017-06-11T16:02:22.138Z,7.90
2017-06-11T16:04:50.319Z,6.10
2017-06-11T16:07:18.606Z,6.37
2017-06-11T16:09:46.764Z,6.13
2017-06-11T16:12:14.933Z,8.00
2017-06-11T16:14:43.463Z,8.43
2017-06-11T16:17:11.617Z,7.80
2017-06-11T16:19:39.790Z,9.13
2017-06-11T16:22:07.993Z,9.90
2017-06-11T16:24:36.166Z,7.60
2017-06-11T16:27:04.334Z,5.33
2017-06-11T16:29:32.551Z,6.43
2017-06-11T16:32:01.545Z,5.83
2017-06-11T16:34:29.722Z,5.00
2017-06-11T16:36:57.869Z,8.03
2017-06-11T16:39:26.064Z,7.60
2017-06-11T16:41:54.286Z,6.13
2017-06-11T16:44:22.516Z,5.43
2017-06-11T16:46:50.707Z,6.13
2017-06-11T16:49:18.965Z,5.90
2017-06-11T16:51:47.127Z,12.20
2017-06-11T16:54:15.494Z,7.60
2017-06-11T16:56:43.743Z,7.50
2017-06-11T16:59:11.914Z,11.93
2017-06-11T17:01:40.088Z,5.97
2017-06-11T17:04:08.318Z,8.23
2017-06-11T17:06:36.504Z,7.20
2017-06-11T17:09:04.881Z,7.80
2017-06-11T17:11:33.103Z,6.90
2017-06-11T17:14:01.283Z,7.03
2017-06-11T17:16:29.454Z,5.77
2017-06-11T17:18:57.690Z,6.07
2017-06-11T17:21:25.900Z,7.27
2017-06-11T17:23:54.090Z,10.77
2017-06-11T17:26:22.297Z,5.50
2017-06-11T17:28:50.472Z,8.57
2017-06-11T17:31:18.631Z,8.77
2017-06-11T17:33:47.317Z,13.00
2017-06-11T17:36:15.492Z,11.10
2017-06-11T17:38:43.682Z,6.40
2017-06-11T17:41:11.914Z,6.13
2017-06-11T17:43:40.078Z,6.03
2017-06-11T17:46:08.303Z,6.57
2017-06-11T17:48:36.530Z,6.37
2017-06-11T17:51:04.709Z,6.57
2017-06-11T17:53:32.991Z,7.63
2017-06-11T17:56:01.203Z,8.50
2017-06-11T17:58:29.389Z,6.67
2017-06-11T18:00:57.600Z,7.30
2017-06-11T18:03:25.892Z,6.30
2017-06-11T18:05:54.822Z,7.70
2017-06-11T18:08:23.054Z,6.50
2017-06-11T18:10:52.010Z,7.40
2017-06-11T18:13:20.239Z,9.90
2017-06-11T18:15:48.480Z,6.97
2017-06-11T18:18:16.667Z,6.43
2017-06-11T18:20:45.623Z,9.67
2017-06-11T18:23:13.861Z,8.20
2017-06-11T18:25:42.391Z,5.60
2017-06-11T18:28:10.615Z,5.77
2017-06-11T18:30:38.864Z,6.60
2017-06-11T18:33:07.856Z,10.60
2017-06-11T18:35:36.972Z,6.40
2017-06-11T18:38:05.166Z,7.77
2017-06-11T18:40:33.327Z,6.40
2017-06-11T18:43:01.572Z,7.07
2017-06-11T18:45:29.764Z,8.53
2017-06-11T18:47:57.943Z,6.30
2017-06-11T18:50:26.207Z,9.93
2017-06-11T18:52:54.409Z,6.00
2017-06-11T18:55:22.710Z,9.40
2017-06-11T18:57:50.905Z,8.03
2017-06-11T19:00:19.147Z,7.23
2017-06-11T19:02:47.407Z,6.10
2017-06-11T19:05:15.606Z,7.23
2017-06-11T19:07:43.881Z,7.87
2017-06-11T19:10:12.109Z,6.30
2017-06-11T19:12:40.616Z,5.10
2017-06-11T19:15:08.810Z,6.00
2017-06-11T19:17:37.026Z,7.20
2017-06-11T19:20:05.251Z,9.83
2017-06-11T19:22:33.435Z,5.60
2017-06-11T19:25:01.726Z,4.43
2017-06-11T19:27:29.896Z,10.17
2017-06-11T19:29:58.086Z,6.90
2017-06-11T19:32:26.363Z,5.27
2017-06-11T19:34:55.351Z,5.30
2017-06-11T19:37:24.844Z,6.50
2017-06-11T19:39:53.125Z,9.57
2017-06-11T19:42:21.337Z,4.90
2017-06-11T19:44:50.776Z,6.70
2017-06-11T19:47:18.960Z,5.70
2017-06-11T19:49:47.205Z,10.93
2017-06-11T19:52:15.461Z,7.43
2017-06-11T19:54:43.780Z,5.43
2017-06-11T19:57:11.998Z,7.93
2017-06-11T19:59:40.195Z,5.37
2017-06-11T20:02:08.376Z,6.90
2017-06-11T20:04:36.684Z,7.60
2017-06-11T20:07:04.911Z,7.40
2017-06-11T20:09:33.102Z,4.43
2017-06-11T20:12:01.352Z,4.87
2017-06-11T20:14:29.528Z,5.03
2017-06-11T20:16:57.863Z,4.50
2017-06-11T20:19:26.041Z,5.97
2017-06-11T20:21:54.242Z,6.63
2017-06-11T20:24:22.535Z,4.77
2017-06-11T20:26:50.828Z,6.10
2017-06-11T20:29:19.006Z,5.83
2017-06-11T20:31:47.206Z,4.37
2017-06-11T20:34:15.371Z,6.00
2017-06-11T20:36:43.662Z,8.03
2017-06-11T20:39:11.911Z,6.60
2017-06-11T20:41:40.275Z,8.10
2017-06-11T20:44:08.456Z,7.83
2017-06-11T20:46:36.769Z,6.63
2017-06-11T20:49:04.967Z,5.80
2017-06-11T20:51:33.160Z,9.83
2017-06-11T20:54:01.482Z,10.53
2017-06-11T20:56:29.649Z,6.90
2017-06-11T20:58:57.803Z,5.83
2017-06-11T21:01:26.058Z,4.83
2017-06-11T21:03:54.235Z,7.77
2017-06-11T21:06:22.509Z,9.50
2017-06-11T21:08:50.790Z,6.37
2017-06-11T21:11:18.990Z,4.63
2017-06-11T21:13:47.224Z,7.80
2017-06-11T21:16:15.433Z,6.90
2017-06-11T21:18:43.754Z,5.40
2017-06-11T21:21:11.930Z,4.40
2017-06-11T21:23:40.121Z,5.50
2017-06-11T21:26:08.341Z,7.17
2017-06-11T21:28:36.554Z,10.20
2017-06-11T21:31:04.731Z,8.03
2017-06-11T21:33:32.946Z,11.10
2017-06-11T21:36:01.153Z,6.63
2017-06-11T21:38:29.365Z,4.67
2017-06-11T21:40:57.565Z,8.93
2017-06-11T21:43:25.723Z,9.67
2017-06-11T21:45:53.901Z,5.27
2017-06-11T21:48:22.144Z,11.03
2017-06-11T21:50:51.103Z,6.10
2017-06-11T21:53:19.308Z,6.00
2017-06-11T21:55:47.757Z,4.53
2017-06-11T21:58:27.764Z,7.90
2017-06-11T22:00:57.123Z,6.00
2017-06-11T22:03:25.301Z,8.30
2017-06-11T22:05:53.490Z,6.03
2017-06-11T22:08:21.681Z,5.17
2017-06-11T22:10:49.850Z,6.60
2017-06-11T22:13:18.029Z,7.63
2017-06-11T22:15:46.223Z,6.57
2017-06-11T22:18:14.412Z,7.13
2017-06-11T22:20:42.565Z,6.20
2017-06-11T22:23:10.774Z,6.97
2017-06-11T22:25:38.960Z,6.17
2017-06-11T22:28:07.172Z,8.33
2017-06-11T22:30:35.346Z,7.10
2017-06-11T22:33:03.579Z,8.40
2017-06-11T22:35:31.778Z,5.93
2017-06-11T22:37:59.954Z,11.10
2017-06-11T22:40:28.115Z,6.10
2017-06-11T22:42:56.303Z,6.43
2017-06-11T22:45:24.491Z,6.73
2017-06-11T22:47:52.674Z,5.80
2017-06-11T22:50:20.855Z,6.70
2017-06-11T22:52:48.990Z,6.20
2017-06-11T22:55:17.196Z,6.47
2017-06-11T22:57:45.362Z,8.80
2017-06-11T23:00:16.790Z,6.47
2017-06-11T23:02:44.967Z,9.63
2017-06-11T23:05:13.133Z,6.63
2017-06-11T23:07:41.426Z,6.57
2017-06-11T23:10:09.609Z,7.80
2017-06-11T23:12:37.937Z,6.50
2017-06-11T23:15:06.878Z,6.17
2017-06-11T23:17:35.617Z,7.40
2017-06-11T23:20:03.898Z,5.77
2017-06-11T23:22:32.142Z,6.20
2017-06-11T23:25:00.300Z,7.50
2017-06-11T23:27:28.483Z,7.50
2017-06-11T23:29:56.669Z,5.50
2017-06-11T23:32:24.850Z,7.40
2017-06-11T23:34:53.047Z,10.20
2017-06-11T23:37:21.213Z,6.07
2017-06-11T23:39:49.393Z,6.50
2017-06-11T23:42:17.596Z,9.17
2017-06-11T23:44:45.792Z,9.50
2017-06-11T23:47:14.199Z,8.23
2017-06-11T23:49:42.373Z,10.17
2017-06-11T23:52:10.568Z,8.13
2017-06-11T23:54:38.767Z,11.33
2017-06-11T23:57:06.917Z,11.17
2017-06-11T23:59:35.119Z,8.17
